Latest Coastal Weather Observations for Ballina

IDN60701

Issued at 5:11 am EST Tuesday 27 June 2017 (issued every 10 minutes, with the page automatically refreshed every 10 minutes)

About coastal observations | Map of coastal stations | Coastal observations for NSW | Marine services | Other Formats
Station Details ID: 058198 Name: BALLINA AIRPORT AWS Lat: -28.84 Lon: 153.56 Height: 1.3 m
Data from the previous 72 hours. | See also: Recent months at Ballina
Date/Time
EST
Temp
°C
Wind Pressure Rain since
9am
mm
Weather Cloud Vis
km
Sea
Height
m
Swell
Dir  Spd
kts
Gust
kts
hPa Trend Height
m
Period
s
Dir
27/05:00am 10.2 CALM 0 0 1024.7 - 0.2 - Partly cloudy 7 - - - -
27/04:30am 10.6 CALM 0 0 1024.5 - 0.2 - - 5 - - - -
27/04:00am 10.5 CALM 0 0 1024.5 - 0.2 - - 10 - - - -
27/03:30am 11.2 CALM 0 0 1024.3 - 0.2 - - 10 - - - -
27/03:00am 11.8 CALM 0 0 1024.3 - 0.0 - Partly cloudy 10 - - - -
27/02:30am 11.4 CALM 0 0 1024.4 - 0.0 - Partly cloudy 10 - - - -
27/02:22am 11.1 CALM 0 0 1024.4 - 0.0 - Partly cloudy 10 - - - -
27/02:00am 11.0 CALM 0 0 1024.3 - 0.0 - Partly cloudy 4 - - - -
27/01:59am 11.0 CALM 0 0 1024.3 - 0.0 - - 4 - - - -
27/01:30am 12.0 CALM 0 0 1024.3 - 0.0 - Partly cloudy 10 - - - -
27/01:00am 12.0 W 3 5 1024.3 - 0.0 - - 10 - - - -
27/12:30am 11.5 CALM 0 0 1024.4 - 0.0 - Partly cloudy 10 - - - -
27/12:00am 11.3 CALM 0 0 1024.3 - 0.0 - Partly cloudy 10 - - - -
 
Date/Time
EST
Temp
°C
Wind Pressure Rain since
9am
mm
Weather Cloud Vis
km
Sea
Height
m
Swell
Dir  Spd
kts
Gust
kts
hPa Trend Height
m
Period
s
Dir
26/11:52pm 11.5 CALM 0 0 1024.4 - 0.0 - Partly cloudy 10 - - - -
26/11:30pm 11.2 CALM 0 0 1024.4 - 0.0 - Partly cloudy 0.7 - - - -
26/11:18pm 11.1 CALM 0 0 1024.5 - 0.0 - Partly cloudy 3 - - - -
26/11:14pm 11.3 CALM 0 0 1024.5 - 0.0 - Partly cloudy 8 - - - -
26/11:00pm 11.4 CALM 0 0 1024.6 - 0.0 - - 4 - - - -
26/10:49pm 11.3 CALM 0 0 1024.7 - 0.0 - - 5 - - - -
26/10:30pm 12.1 CALM 0 0 1024.8 - 0.0 - Partly cloudy 10 - - - -
26/10:00pm 12.0 CALM 0 0 1024.6 - 0.0 - Partly cloudy 10 - - - -
26/09:30pm 12.0 CALM 0 0 1024.2 - 0.0 - - 7 - - - -
26/09:00pm 11.8 W 2 4 1023.7 - 0.0 - - 10 - - - -
26/08:30pm 12.7 CALM 0 0 1023.6 - 0.0 - - 10 - - - -
26/08:00pm 12.6 W 3 4 1023.5 - 0.0 - - 10 - - - -
26/07:30pm 13.1 WNW 3 4 1023.1 - 0.0 - - 10 - - - -
26/07:00pm 13.3 SW 3 4 1022.7 - 0.0 - - 10 - - - -
26/06:30pm 14.3 CALM 0 0 1022.3 - 0.0 - - 10 - - - -
26/06:00pm 14.9 CALM 0 0 1022.1 - 0.0 - - 10 - - - -
26/05:30pm 15.8 CALM 0 0 1021.7 - 0.0 - - 10 - - - -
26/05:00pm 17.7 SE 3 4 1021.5 - 0.0 - - 10 - - - -
26/04:30pm 19.0 SE 5 7 1021.3 - 0.0 - - 10 - - - -
26/04:00pm 19.8 SSE 7 10 1021.2 - 0.0 - - 10 - - - -
26/03:30pm 20.1 SE 7 9 1020.9 - 0.0 - - 10 - - - -
26/03:00pm 20.2 SSE 9 12 1020.9 - 0.0 - - 10 - - - -
26/02:30pm 20.8 SSE 10 13 1020.5 - 0.0 - - 10 - - - -
26/02:00pm 20.6 SSE 11 15 1020.4 - 0.0 - - 10 - - - -
26/01:30pm 22.7 S 9 13 1020.5 - 0.0 - - 10 - - - -
26/01:00pm 22.6 SSW 6 9 1020.4 - 0.0 - - 10 - - - -
26/12:30pm 22.4 SW 5 8 1020.8 - 0.0 - - 10 - - - -
26/12:00pm 22.0 SW 6 10 1021.0 - 0.0 - - 10 - - - -
26/11:30am 21.5 SW 6 8 1021.3 - 0.0 - - 10 - - - -
26/11:00am 20.8 SW 6 7 1021.6 - 0.0 - - 10 - - - -
26/10:30am 19.5 SW 6 8 1022.0 - 0.0 - - 10 - - - -
26/10:00am 19.1 SW 6 8 1021.9 - 0.0 - - 10 - - - -
26/09:30am 17.9 WSW 5 8 1022.0 - 0.0 - - 10 - - - -
26/09:00am 16.0 SW 6 7 1021.8 - 0.0 - - 10 - - - -
26/08:30am 14.7 W 3 4 1021.6 - 0.0 - - 10 - - - -
26/08:00am 13.5 CALM 0 0 1021.2 - 0.0 - - 10 - - - -
26/07:30am 11.8 CALM 0 0 1020.9 - 0.0 - - 10 - - - -
26/07:00am 11.3 NNW 4 6 1020.6 - 0.0 - - 10 - - - -
26/06:43am 10.8 NNW 2 4 1020.6 - 0.0 - - 10 - - - -
26/06:30am 10.4 NW 3 5 1020.5 - 0.0 - - 5 - - - -
26/06:00am 10.8 CALM 0 0 1020.1 - 0.0 - - 0.4 - - - -
26/05:30am 10.6 CALM 0 0 1019.9 - 0.0 - - 1 - - - -
26/05:00am 11.2 CALM 0 0 1019.8 - 0.0 - - 0.4 - - - -
26/04:30am 11.5 CALM 0 0 1019.6 - 0.0 - Partly cloudy 4 - - - -
26/04:26am 11.1 CALM 0 0 1019.6 - 0.0 - Partly cloudy 5 - - - -
26/04:00am 12.7 CALM 0 0 1019.6 - 0.0 - Partly cloudy 10 - - - -
26/03:58am 12.6 CALM 0 0 1019.6 - 0.0 - Partly cloudy 10 - - - -
26/03:30am 11.9 CALM 0 0 1019.5 - 0.0 - Partly cloudy 4 - - - -
26/03:00am 12.4 CALM 0 0 1019.5 - 0.0 - Mostly cloudy 1 - - - -
26/02:47am 12.6 CALM 0 0 1019.4 - 0.0 - Partly cloudy 5 - - - -
26/02:30am 13.1 WSW 1 3 1019.5 - 0.0 - Partly cloudy 10 - - - -
26/02:00am 12.8 W 1 3 1019.6 - 0.0 - Cloudy 10 - - - -
26/01:48am 12.6 W 3 4 1019.6 - 0.0 - Cloudy 10 - - - -
26/01:30am 12.7 WNW 1 4 1019.5 - 0.0 - Partly cloudy 0.9 - - - -
26/01:23am 12.6 WNW 1 3 1019.6 - 0.0 - Partly cloudy 5 - - - -
26/01:10am 12.6 WNW 3 4 1019.5 - 0.0 - Partly cloudy 10 - - - -
26/01:00am 13.1 NW 2 4 1019.5 - 0.0 - Partly cloudy 5 - - - -
26/12:56am 13.1 NW 1 4 1019.5 - 0.0 - Partly cloudy 5 - - - -
26/12:30am 13.4 CALM 0 0 1019.6 - 0.0 - Cloudy 10 - - - -
26/12:00am 13.4 CALM 0 0 1019.7 - 0.0 - Cloudy 10 - - - -
 
Date/Time
EST
Temp
°C
Wind Pressure Rain since
9am
mm
Weather Cloud Vis
km
Sea
Height
m
Swell
Dir  Spd
kts
Gust
kts
hPa Trend Height
m
Period
s
Dir
25/11:55pm 13.5 CALM 0 0 1019.7 - 0.0 - Cloudy 10 - - - -
25/11:30pm 12.9 CALM 0 0 1019.8 - 0.0 - Partly cloudy 3 - - - -
25/11:00pm 13.2 CALM 0 0 1019.8 - 0.0 - Cloudy 1 - - - -
25/10:37pm 13.0 CALM 0 0 1019.9 - 0.0 - Cloudy 5 - - - -
25/10:30pm 13.3 CALM 0 0 1019.9 - 0.0 - Cloudy 9 - - - -
25/10:00pm 14.1 NNW 4 4 1020.0 - 0.0 - Cloudy 10 - - - -
25/09:30pm 13.7 CALM 0 0 1020.0 - 0.0 - Cloudy 10 - - - -
25/09:00pm 13.3 CALM 0 0 1019.8 - 0.0 - Mostly cloudy 10 - - - -
25/08:30pm 12.9 CALM 0 0 1019.9 - 0.0 - Partly cloudy 10 - - - -
25/08:29pm 13.0 CALM 0 0 1019.9 - 0.0 - Partly cloudy 10 - - - -
25/08:02pm 12.7 CALM 0 0 1019.6 - 0.0 - - 3 - - - -
25/08:00pm 12.8 CALM 0 0 1019.6 - 0.0 - - 10 - - - -
25/07:30pm 13.2 CALM 0 1 1019.4 - 0.0 - - 10 - - - -
25/07:00pm 14.3 CALM 0 0 1019.3 - 0.0 - - 10 - - - -
25/06:30pm 14.9 CALM 0 0 1019.0 - 0.0 - - 10 - - - -
25/06:00pm 14.8 CALM 0 0 1018.8 - 0.0 - - 10 - - - -
25/05:30pm 15.9 CALM 0 0 1018.7 - 0.0 - - 10 - - - -
25/05:00pm 17.1 ESE 2 3 1018.2 - 0.0 - - 10 - - - -
25/04:30pm 18.7 ENE 4 4 1018.3 - 0.0 - - 10 - - - -
25/04:00pm 19.6 ENE 5 8 1018.2 - 0.0 - - 10 - - - -
25/03:30pm 19.8 ESE 6 9 1018.2 - 0.0 - - 10 - - - -
25/03:00pm 20.6 E 5 7 1018.0 - 0.0 - - 10 - - - -
25/02:30pm 20.5 SE 7 9 1018.1 - 0.0 - - 10 - - - -
25/02:00pm 21.1 E 7 9 1018.1 - 0.0 - - 10 - - - -
25/01:30pm 21.7 E 7 9 1018.1 - 0.0 - - 10 - - - -
25/01:00pm 21.8 SE 8 10 1018.3 - 0.0 - - 10 - - - -
25/12:30pm 22.3 NNE 3 6 1018.7 - 0.0 - - 10 - - - -
25/12:00pm 21.7 NNW 5 7 1019.0 - 0.0 - - 10 - - - -
25/11:30am 21.6 NNW 5 7 1019.5 - 0.0 - - 10 - - - -
25/11:00am 21.0 NNW 4 6 1019.8 - 0.0 - - 10 - - - -
25/10:30am 20.3 NW 3 6 1020.4 - 0.0 - - 10 - - - -
25/10:00am 19.5 NW 4 6 1020.8 - 0.0 - - 10 - - - -
25/09:30am 18.0 NW 3 6 1020.9 - 0.0 - - 10 - - - -
25/09:00am 15.8 N 3 4 1020.7 - 0.0 - - 10 - - - -
25/08:30am 13.8 CALM 0 0 1020.7 - 0.0 - - 10 - - - -
25/08:00am 12.1 CALM 0 0 1020.2 - 0.0 - - 10 - - - -
25/07:30am 10.2 CALM 0 0 1019.9 - 0.0 - - 10 - - - -
25/07:21am 9.5 CALM 0 0 1019.9 - 0.0 - - 10 - - - -
25/07:00am 9.0 CALM 0 0 1019.8 - 0.0 - - 0.6 - - - -
25/06:33am 8.6 CALM 0 0 1019.5 - 0.0 - - 5 - - - -
25/06:30am 8.4 CALM 0 0 1019.4 - 0.0 - - 10 - - - -
25/06:05am 8.5 CALM 0 0 1019.1 - 0.0 - - 10 - - - -
25/06:00am 8.4 CALM 0 0 1019.1 - 0.0 - - 10 - - - -
25/05:30am 8.6 CALM 0 0 1019.0 - 0.0 - - 8 - - - -
25/05:12am 8.4 CALM 0 0 1018.9 - 0.0 - - 5 - - - -
25/05:11am 8.5 CALM 0 0 1018.9 - 0.0 - - 10 - - - -
25/05:00am 8.6 CALM 0 0 1018.8 - 0.0 - - 3 - - - -
25/04:51am 8.4 CALM 0 0 1018.8 - 0.0 - - 5 - - - -
25/04:30am 8.8 CALM 0 0 1018.7 - 0.0 - - 10 - - - -
25/04:28am 8.9 CALM 0 0 1018.7 - 0.0 - - 10 - - - -
25/04:00am 9.1 CALM 0 0 1018.7 - 0.0 - - 1 - - - -
25/03:30am 9.0 CALM 0 0 1018.9 - 0.0 - - 4 - - - -
25/03:00am 9.2 CALM 0 0 1019.1 - 0.0 - - 3 - - - -
25/02:35am 9.3 CALM 0 0 1019.1 - 0.0 - - 5 - - - -
25/02:30am 9.3 CALM 0 0 1019.1 - 0.0 - - 10 - - - -
25/02:28am 9.4 CALM 0 0 1019.1 - 0.0 - - 10 - - - -
25/02:00am 9.3 CALM 0 0 1019.0 - 0.0 - - 1 - - - -
25/01:48am 9.4 CALM 0 0 1019.0 - 0.0 - - 5 - - - -
25/01:30am 9.4 CALM 0 0 1019.1 - 0.0 - - 8 - - - -
25/01:00am 9.7 CALM 0 0 1019.0 - 0.0 - - 10 - - - -
25/12:31am 9.8 CALM 0 0 1019.3 - 0.0 - - 10 - - - -
25/12:30am 9.8 CALM 0 0 1019.2 - 0.0 - - 10 - - - -
25/12:15am 10.0 CALM 0 0 1019.3 - 0.0 - - 5 - - - -
25/12:00am 10.0 CALM 0 0 1019.4 - 0.0 - - 10 - - - -
 
Date/Time
EST
Temp
°C
Wind Pressure Rain since
9am
mm
Weather Cloud Vis
km
Sea
Height
m
Swell
Dir  Spd
kts
Gust
kts
hPa Trend Height
m
Period
s
Dir
24/11:30pm 10.3 CALM 0 0 1019.4 - 0.0 - - 10 - - - -
24/11:20pm 10.3 CALM 0 0 1019.3 - 0.0 - - 10 - - - -
24/11:00pm 10.2 CALM 0 0 1019.3 - 0.0 - - 2 - - - -
24/10:56pm 10.2 CALM 0 0 1019.3 - 0.0 - - 5 - - - -
24/10:30pm 10.3 CALM 0 0 1019.4 - 0.0 - - 10 - - - -
24/10:00pm 10.7 CALM 0 0 1019.4 - 0.0 - - 10 - - - -
24/09:30pm 11.0 CALM 0 0 1019.2 - 0.0 - - 10 - - - -
24/09:00pm 11.2 CALM 0 0 1019.2 - 0.0 - - 10 - - - -
24/08:30pm 11.3 CALM 0 0 1019.0 - 0.0 - - 10 - - - -
24/08:00pm 11.5 CALM 0 0 1018.9 - 0.0 - - 10 - - - -
24/07:30pm 11.5 NNW 1 4 1018.7 - 0.0 - - 10 - - - -
24/07:00pm 12.3 CALM 0 0 1018.5 - 0.0 - - 10 - - - -
24/06:30pm 13.3 CALM 0 0 1018.3 - 0.0 - - 10 - - - -
24/06:00pm 14.0 CALM 0 0 1017.8 - 0.0 - - 10 - - - -
24/05:30pm 14.8 CALM 0 0 1017.6 - 0.0 - - 10 - - - -
24/05:00pm 16.7 SSE 2 4 1017.2 - 0.0 - - 10 - - - -
24/04:30pm 18.3 SSE 5 8 1016.9 - 0.0 - - 10 - - - -
24/04:00pm 19.7 SSE 7 10 1016.8 - 0.0 - - 10 - - - -
24/03:30pm 20.2 SSE 9 12 1016.6 - 0.0 - - 10 - - - -
24/03:00pm 20.5 S 10 14 1016.6 - 0.0 - - 10 - - - -
24/02:30pm 20.7 SSE 8 11 1016.3 - 0.0 - - 10 - - - -
24/02:00pm 21.2 S 9 14 1016.3 - 0.0 - - 10 - - - -
24/01:30pm 21.6 S 11 17 1016.4 - 0.0 - - 10 - - - -
24/01:00pm 21.6 SW 9 12 1016.4 - 0.0 - - 10 - - - -
24/12:30pm 21.4 SW 9 14 1016.6 - 0.0 - - 10 - - - -
24/12:00pm 21.6 WSW 11 18 1017.2 - 0.0 - - 10 - - - -
24/11:30am 21.5 WSW 10 13 1017.6 - 0.0 - - 10 - - - -
24/11:00am 21.2 W 9 14 1017.9 - 0.0 - - 10 - - - -
24/10:30am 20.8 W 8 12 1018.3 - 0.0 - - 10 - - - -
24/10:00am 20.5 WNW 10 14 1018.4 - 0.0 - - 10 - - - -
24/09:30am 19.8 WNW 9 11 1018.4 - 0.0 - - 10 - - - -
24/09:00am 18.7 WNW 5 7 1018.3 - 0.0 - - 10 - - - -
24/08:30am 16.3 WNW 5 7 1017.9 - 0.0 - - 10 - - - -
24/08:00am 12.7 NW 3 16 1017.9 - 0.0 - - 10 - - - -
24/07:30am 10.2 CALM 0 0 1017.2 - 0.0 - - 10 - - - -
24/07:00am 9.8 CALM 0 0 1017.0 - 0.0 - - 10 - - - -
24/06:30am 9.6 CALM 0 0 1016.8 - 0.0 - - 10 - - - -
24/06:00am 10.5 CALM 0 0 1016.5 - 0.0 - - 10 - - - -
24/05:30am 10.6 CALM 0 0 1016.1 - 0.0 - - 10 - - - -

Other Formats:

Comma delimited format used in spreadsheet applications
http://www.bom.gov.au/fwo/IDN60701/IDN60701.94596.axf

JavaScript Object Notation format (JSON) in row-major order
http://www.bom.gov.au/fwo/IDN60701/IDN60701.94596.json